Time;durP1;ratioP1;P1;durP2;ratioP2;P2;SDS_P1;SDS_P2;PMS_P1;PMS_P2;Temp;Humidity;BMP_temperature;BMP_pressure;BME280_temperature;BME280_humidity;BME280_pressure;Samples;Min_cycle;Max_cycle;Signal;HPM_P1;HPM_P2
2023/04/22 00:02:25;;;;;;;;;;;19.10;49.80;;;;;;10329254;28;781;-74
2023/04/22 00:07:21;;;;;;;;;;;19.10;49.80;;;;;;10329045;28;884;-74
2023/04/22 00:12:16;;;;;;;;;;;19.10;49.70;;;;;;10329429;28;767;-74
2023/04/22 00:17:12;;;;;;;;;;;19.10;49.60;;;;;;10328536;28;1988;-74
2023/04/22 00:22:07;;;;;;;;;;;19.10;49.70;;;;;;10328396;28;830;-74
2023/04/22 00:27:02;;;;;;;;;;;19.00;50.20;;;;;;10327522;28;1010;-75
2023/04/22 00:31:58;;;;;;;;;;;19.10;50.20;;;;;;10328162;28;866;-74
2023/04/22 00:36:53;;;;;;;;;;;19.00;49.50;;;;;;10327663;28;1913;-74
2023/04/22 00:41:49;;;;;;;;;;;19.10;49.70;;;;;;10327534;28;953;-74
2023/04/22 00:46:44;;;;;;;;;;;19.10;49.60;;;;;;10327255;28;783;-74
2023/04/22 00:51:40;;;;;;;;;;;19.00;49.50;;;;;;10327154;28;874;-75
2023/04/22 00:56:36;;;;;;;;;;;19.00;49.50;;;;;;10326966;28;1906;-74
2023/04/22 01:01:31;;;;;;;;;;;19.00;49.50;;;;;;10326736;28;883;-74
2023/04/22 01:06:27;;;;;;;;;;;19.00;49.60;;;;;;10326635;28;863;-74
2023/04/22 01:11:23;;;;;;;;;;;19.10;49.60;;;;;;10325854;28;863;-75
2023/04/22 01:16:18;;;;;;;;;;;19.10;49.60;;;;;;10326250;28;1921;-74
2023/04/22 01:21:13;;;;;;;;;;;19.10;49.50;;;;;;10326153;28;935;-75
2023/04/22 01:26:09;;;;;;;;;;;19.00;50.00;;;;;;10326013;28;838;-74
2023/04/22 01:31:04;;;;;;;;;;;19.00;49.40;;;;;;10325855;28;854;-74
2023/04/22 01:35:59;;;;;;;;;;;19.00;49.40;;;;;;10325745;28;1910;-74
2023/04/22 01:40:55;;;;;;;;;;;19.00;49.40;;;;;;10325630;28;1559;-74
2023/04/22 01:45:50;;;;;;;;;;;19.00;49.40;;;;;;10325606;28;865;-74
2023/04/22 01:50:45;;;;;;;;;;;19.00;49.50;;;;;;10326116;28;790;-74
2023/04/22 01:55:41;;;;;;;;;;;19.00;49.40;;;;;;10325362;28;1914;-74
2023/04/22 02:00:37;;;;;;;;;;;19.10;49.40;;;;;;10325110;28;887;-74
2023/04/22 02:05:32;;;;;;;;;;;19.10;49.30;;;;;;10325212;28;799;-74
2023/04/22 02:10:28;;;;;;;;;;;19.00;49.30;;;;;;10325117;28;799;-75
2023/04/22 02:15:23;;;;;;;;;;;19.00;49.30;;;;;;10325495;28;1918;-74
2023/04/22 02:20:18;;;;;;;;;;;19.00;49.40;;;;;;10325657;28;821;-74
2023/04/22 02:25:14;;;;;;;;;;;19.00;49.30;;;;;;10332812;28;818;-74
2023/04/22 02:30:09;;;;;;;;;;;19.00;49.30;;;;;;10332720;28;855;-74
2023/04/22 02:35:04;;;;;;;;;;;19.00;49.30;;;;;;10333182;28;1973;-74
2023/04/22 02:40:00;;;;;;;;;;;19.00;49.30;;;;;;10332369;28;887;-74
2023/04/22 02:44:55;;;;;;;;;;;19.00;49.40;;;;;;10332746;28;911;-74
2023/04/22 02:49:50;;;;;;;;;;;19.00;49.30;;;;;;10331264;28;1023;-75
2023/04/22 02:54:46;;;;;;;;;;;19.00;49.30;;;;;;10331609;28;1905;-74
2023/04/22 02:59:41;;;;;;;;;;;19.00;49.40;;;;;;10332372;28;873;-75
2023/04/22 03:04:37;;;;;;;;;;;19.00;49.30;;;;;;10332220;28;798;-74
2023/04/22 03:09:32;;;;;;;;;;;19.00;49.30;;;;;;10331227;28;1066;-74
2023/04/22 03:14:28;;;;;;;;;;;19.00;49.30;;;;;;10331003;28;1971;-74
2023/04/22 03:19:23;;;;;;;;;;;19.00;49.80;;;;;;10330974;28;766;-74
2023/04/22 03:24:18;;;;;;;;;;;19.00;49.20;;;;;;10330929;28;918;-74
2023/04/22 03:29:14;;;;;;;;;;;19.00;49.30;;;;;;10330499;28;795;-74
2023/04/22 03:34:09;;;;;;;;;;;19.00;49.30;;;;;;10330038;28;1975;-74
2023/04/22 03:39:05;;;;;;;;;;;19.00;49.30;;;;;;10330717;28;924;-74
2023/04/22 03:44:00;;;;;;;;;;;18.90;49.30;;;;;;10330856;28;888;-74
2023/04/22 03:48:55;;;;;;;;;;;18.90;49.30;;;;;;10329956;28;1104;-74
2023/04/22 03:53:51;;;;;;;;;;;19.00;49.30;;;;;;10329552;28;1918;-74
2023/04/22 03:58:46;;;;;;;;;;;19.00;49.30;;;;;;10330131;28;1187;-74
2023/04/22 04:03:41;;;;;;;;;;;19.00;49.30;;;;;;10329286;28;817;-74
2023/04/22 04:08:37;;;;;;;;;;;19.00;49.30;;;;;;10329074;28;879;-74
2023/04/22 04:13:32;;;;;;;;;;;19.00;49.30;;;;;;10329365;28;1971;-74
2023/04/22 04:18:28;;;;;;;;;;;19.00;49.20;;;;;;10329636;28;902;-74
2023/04/22 04:23:23;;;;;;;;;;;19.00;49.20;;;;;;10328975;28;894;-74
2023/04/22 04:28:19;;;;;;;;;;;19.00;49.30;;;;;;10328731;28;929;-75
2023/04/22 04:33:16;;;;;;;;;;;19.00;49.30;;;;;;10327964;28;878;-74
2023/04/22 04:38:11;;;;;;;;;;;19.00;49.30;;;;;;10327603;28;1960;-74
2023/04/22 04:43:07;;;;;;;;;;;19.00;49.70;;;;;;10327437;28;912;-74
2023/04/22 04:48:02;;;;;;;;;;;19.00;49.20;;;;;;10326657;28;958;-74
2023/04/22 04:52:58;;;;;;;;;;;19.00;49.10;;;;;;10327641;28;962;-74
2023/04/22 04:57:53;;;;;;;;;;;19.00;49.10;;;;;;10326051;28;1902;-74
2023/04/22 05:02:48;;;;;;;;;;;19.10;49.10;;;;;;10326233;28;830;-75
2023/04/22 05:07:44;;;;;;;;;;;19.10;49.10;;;;;;10327271;28;818;-75
2023/04/22 05:12:40;;;;;;;;;;;19.00;49.00;;;;;;10326623;28;874;-75
2023/04/22 05:17:35;;;;;;;;;;;19.00;49.00;;;;;;10326877;28;1953;-75
2023/04/22 05:22:31;;;;;;;;;;;19.00;49.10;;;;;;10326182;28;872;-75
2023/04/22 05:27:26;;;;;;;;;;;19.00;49.10;;;;;;10326826;28;885;-74
2023/04/22 05:32:21;;;;;;;;;;;19.10;49.10;;;;;;10326027;28;867;-74
2023/04/22 05:37:17;;;;;;;;;;;19.00;49.00;;;;;;10325759;28;1963;-74
2023/04/22 05:42:12;;;;;;;;;;;19.10;49.10;;;;;;10325715;28;921;-75
2023/04/22 05:47:07;;;;;;;;;;;19.10;49.00;;;;;;10326846;28;881;-67
2023/04/22 05:52:03;;;;;;;;;;;19.10;49.10;;;;;;10325546;28;762;-67
2023/04/22 05:56:58;;;;;;;;;;;19.10;49.20;;;;;;10325647;28;2018;-67
2023/04/22 06:01:54;;;;;;;;;;;19.00;49.10;;;;;;10325958;28;811;-67
2023/04/22 06:06:52;;;;;;;;;;;19.10;49.20;;;;;;10325811;28;872;-67
2023/04/22 06:11:47;;;;;;;;;;;19.10;49.20;;;;;;10325795;28;821;-67
2023/04/22 06:16:43;;;;;;;;;;;19.10;49.30;;;;;;10324965;28;1910;-67
2023/04/22 06:21:39;;;;;;;;;;;19.10;49.40;;;;;;10324797;28;953;-67
2023/04/22 06:26:34;;;;;;;;;;;19.10;49.40;;;;;;10325334;28;896;-67
2023/04/22 06:31:30;;;;;;;;;;;19.10;49.40;;;;;;10352249;28;1039;-67
2023/04/22 06:36:26;;;;;;;;;;;19.10;49.30;;;;;;10362292;28;1949;-68
2023/04/22 06:41:21;;;;;;;;;;;19.00;49.30;;;;;;10365238;28;882;-67
2023/04/22 06:46:17;;;;;;;;;;;19.00;49.40;;;;;;10365582;28;751;-66
2023/04/22 06:51:12;;;;;;;;;;;19.00;49.40;;;;;;10366089;28;945;-67
2023/04/22 06:56:07;;;;;;;;;;;19.00;49.50;;;;;;10364861;28;1953;-67
2023/04/22 07:01:03;;;;;;;;;;;19.00;49.50;;;;;;10364689;28;876;-67
2023/04/22 07:05:58;;;;;;;;;;;19.00;49.40;;;;;;10365118;28;898;-67
2023/04/22 07:10:54;;;;;;;;;;;19.00;50.00;;;;;;10371986;28;797;-67
2023/04/22 07:15:49;;;;;;;;;;;19.00;49.50;;;;;;10371672;28;1918;-67
2023/04/22 07:20:44;;;;;;;;;;;19.00;49.40;;;;;;10372265;28;862;-67
2023/04/22 07:25:40;;;;;;;;;;;19.00;49.50;;;;;;10371939;28;972;-67
2023/04/22 07:30:35;;;;;;;;;;;19.00;49.50;;;;;;10371136;28;866;-68
2023/04/22 07:35:30;;;;;;;;;;;19.10;49.60;;;;;;10372135;28;1902;-67
2023/04/22 07:40:26;;;;;;;;;;;19.00;49.50;;;;;;10371409;28;864;-67
2023/04/22 07:45:21;;;;;;;;;;;19.10;49.70;;;;;;10371129;28;941;-67
2023/04/22 07:50:16;;;;;;;;;;;19.10;49.60;;;;;;10353562;28;838;-67
2023/04/22 07:55:12;;;;;;;;;;;19.10;49.60;;;;;;10370642;28;1910;-67
2023/04/22 08:00:07;;;;;;;;;;;19.10;49.60;;;;;;10371239;28;786;-67
2023/04/22 08:05:03;;;;;;;;;;;19.10;49.50;;;;;;10370347;28;873;-67
2023/04/22 08:09:58;;;;;;;;;;;19.20;49.60;;;;;;10370208;28;806;-67
2023/04/22 08:14:53;;;;;;;;;;;19.10;49.40;;;;;;10370019;28;1918;-67
2023/04/22 08:19:49;;;;;;;;;;;19.10;49.60;;;;;;10369710;28;948;-67
2023/04/22 08:24:44;;;;;;;;;;;19.10;49.60;;;;;;10370209;28;848;-67
2023/04/22 08:29:40;;;;;;;;;;;19.10;49.70;;;;;;10369463;28;920;-67
2023/04/22 08:34:35;;;;;;;;;;;19.20;49.70;;;;;;10369724;28;1910;-67
2023/04/22 08:39:30;;;;;;;;;;;19.10;49.70;;;;;;10369059;28;794;-67
2023/04/22 08:44:26;;;;;;;;;;;19.20;49.80;;;;;;10369477;28;790;-68
2023/04/22 08:49:21;;;;;;;;;;;19.10;49.80;;;;;;10368090;28;865;-67
2023/04/22 08:54:17;;;;;;;;;;;19.20;50.00;;;;;;10368359;28;1910;-67
2023/04/22 08:59:12;;;;;;;;;;;19.20;50.00;;;;;;10368044;28;1514;-67
2023/04/22 09:04:07;;;;;;;;;;;19.20;49.90;;;;;;10368692;28;785;-68
2023/04/22 09:09:03;;;;;;;;;;;19.20;49.80;;;;;;10368607;28;845;-69
2023/04/22 09:13:58;;;;;;;;;;;19.20;49.80;;;;;;10367756;28;1976;-68
2023/04/22 09:18:54;;;;;;;;;;;19.20;49.60;;;;;;10367826;28;841;-67
2023/04/22 09:23:49;;;;;;;;;;;19.20;49.60;;;;;;10367510;28;1659;-69
2023/04/22 09:28:45;;;;;;;;;;;19.20;49.70;;;;;;10368455;28;877;-67
2023/04/22 09:33:40;;;;;;;;;;;19.20;49.70;;;;;;10367278;28;1949;-67
2023/04/22 09:38:35;;;;;;;;;;;19.20;49.70;;;;;;10366644;28;964;-67
2023/04/22 09:43:31;;;;;;;;;;;19.20;49.70;;;;;;10366899;28;809;-67
2023/04/22 09:48:26;;;;;;;;;;;19.20;49.60;;;;;;10366707;28;874;-67
2023/04/22 09:53:21;;;;;;;;;;;19.20;49.60;;;;;;10367304;28;865;-66
2023/04/22 09:58:17;;;;;;;;;;;19.20;49.60;;;;;;10367194;28;1910;-72
2023/04/22 10:03:12;;;;;;;;;;;19.20;49.60;;;;;;10366945;28;793;-72
2023/04/22 10:08:08;;;;;;;;;;;19.20;49.50;;;;;;10366895;28;862;-74
2023/04/22 10:13:03;;;;;;;;;;;19.20;49.40;;;;;;10366829;28;833;-75
2023/04/22 10:17:58;;;;;;;;;;;19.20;49.30;;;;;;10366008;28;1914;-74
2023/04/22 10:22:54;;;;;;;;;;;19.10;49.30;;;;;;10366059;28;912;-74
2023/04/22 10:27:49;;;;;;;;;;;19.20;49.30;;;;;;10365932;28;861;-75
2023/04/22 10:32:46;;;;;;;;;;;19.20;49.20;;;;;;10365896;28;933;-75
2023/04/22 10:37:41;;;;;;;;;;;19.20;49.30;;;;;;10366314;28;1910;-79
2023/04/22 10:42:37;;;;;;;;;;;19.20;49.20;;;;;;10367044;28;870;-78
2023/04/22 10:47:32;;;;;;;;;;;19.20;49.20;;;;;;10373527;28;752;-79
2023/04/22 10:52:28;;;;;;;;;;;19.20;49.20;;;;;;10374536;28;873;-79
2023/04/22 10:57:23;;;;;;;;;;;19.20;49.30;;;;;;10373809;28;1905;-79
2023/04/22 11:02:19;;;;;;;;;;;19.20;49.20;;;;;;10373550;28;913;-79
2023/04/22 11:07:15;;;;;;;;;;;19.20;49.10;;;;;;10373411;28;904;-79
2023/04/22 11:12:11;;;;;;;;;;;19.20;49.10;;;;;;10372575;28;999;-80
2023/04/22 11:17:06;;;;;;;;;;;19.20;49.10;;;;;;10373058;28;1914;-80
2023/04/22 11:22:01;;;;;;;;;;;19.20;49.00;;;;;;10372199;28;813;-79
2023/04/22 11:26:57;;;;;;;;;;;19.20;49.10;;;;;;10372567;28;822;-78
2023/04/22 11:31:52;;;;;;;;;;;19.20;49.00;;;;;;10372401;28;798;-79
2023/04/22 11:36:47;;;;;;;;;;;19.20;49.00;;;;;;10372134;28;1902;-78
2023/04/22 11:41:43;;;;;;;;;;;19.30;49.00;;;;;;10352531;28;885;-75
2023/04/22 11:46:38;;;;;;;;;;;19.30;49.00;;;;;;10370939;28;986;-76
2023/04/22 11:51:34;;;;;;;;;;;19.30;49.10;;;;;;10370725;28;953;-75
2023/04/22 11:56:29;;;;;;;;;;;19.30;49.00;;;;;;10369219;28;1902;-75
2023/04/22 12:01:25;;;;;;;;;;;19.30;48.90;;;;;;10371034;28;802;-75
2023/04/22 12:06:20;;;;;;;;;;;19.30;48.90;;;;;;10370218;28;938;-75
2023/04/22 12:11:15;;;;;;;;;;;19.30;48.90;;;;;;10370607;28;877;-75
2023/04/22 12:16:11;;;;;;;;;;;19.30;48.90;;;;;;10370260;28;1918;-75
2023/04/22 12:21:06;;;;;;;;;;;19.40;48.90;;;;;;10368780;28;894;-75
2023/04/22 12:26:02;;;;;;;;;;;19.40;48.80;;;;;;10370385;28;916;-77
2023/04/22 12:30:57;;;;;;;;;;;19.40;48.90;;;;;;10368543;28;857;-76
2023/04/22 12:35:52;;;;;;;;;;;19.30;48.80;;;;;;10368990;28;1992;-76
2023/04/22 12:40:48;;;;;;;;;;;19.40;48.90;;;;;;10368836;28;980;-76
2023/04/22 12:45:43;;;;;;;;;;;19.40;48.80;;;;;;10368589;28;877;-77
2023/04/22 12:50:39;;;;;;;;;;;19.40;48.80;;;;;;10368418;28;818;-78
2023/04/22 12:55:34;;;;;;;;;;;19.40;48.80;;;;;;10368219;28;1902;-77
2023/04/22 13:00:29;;;;;;;;;;;19.40;48.80;;;;;;10369068;28;961;-77
2023/04/22 13:05:25;;;;;;;;;;;19.40;48.70;;;;;;10367116;28;883;-68
2023/04/22 13:10:21;;;;;;;;;;;19.40;48.70;;;;;;10368331;28;939;-68
2023/04/22 13:15:18;;;;;;;;;;;19.40;48.80;;;;;;10368064;28;1917;-68
2023/04/22 13:20:13;;;;;;;;;;;19.40;48.90;;;;;;10367527;28;859;-68
2023/04/22 13:25:09;;;;;;;;;;;19.50;49.10;;;;;;10367334;28;885;-66
2023/04/22 13:30:04;;;;;;;;;;;19.50;48.90;;;;;;10367350;28;947;-67
2023/04/22 13:34:59;;;;;;;;;;;19.50;48.90;;;;;;10367340;28;1970;-68
2023/04/22 13:39:55;;;;;;;;;;;19.50;49.00;;;;;;10366997;28;913;-68
2023/04/22 13:44:50;;;;;;;;;;;19.50;48.90;;;;;;10367519;28;883;-67
2023/04/22 13:49:45;;;;;;;;;;;19.50;48.90;;;;;;10367979;28;853;-67
2023/04/22 13:54:41;;;;;;;;;;;19.60;48.90;;;;;;10366935;28;1973;-67
2023/04/22 13:59:36;;;;;;;;;;;19.60;48.80;;;;;;10366503;28;750;-67
2023/04/22 14:04:32;;;;;;;;;;;19.60;48.60;;;;;;10365783;28;917;-67
2023/04/22 14:09:27;;;;;;;;;;;19.60;48.80;;;;;;10365735;28;932;-67
2023/04/22 14:14:22;;;;;;;;;;;19.60;48.80;;;;;;10366142;28;1977;-68
2023/04/22 14:19:18;;;;;;;;;;;19.60;48.80;;;;;;10372593;28;760;-68
2023/04/22 14:24:13;;;;;;;;;;;19.60;49.30;;;;;;10374501;28;798;-68
2023/04/22 14:29:09;;;;;;;;;;;19.60;48.70;;;;;;10374198;28;882;-68
2023/04/22 14:34:04;;;;;;;;;;;19.60;48.60;;;;;;10374032;28;1980;-68
2023/04/22 14:39:00;;;;;;;;;;;19.60;48.50;;;;;;10374695;28;822;-67
2023/04/22 14:43:55;;;;;;;;;;;19.60;48.50;;;;;;10373102;28;1004;-67
2023/04/22 14:48:50;;;;;;;;;;;19.60;48.50;;;;;;10373449;28;932;-67
2023/04/22 14:53:46;;;;;;;;;;;19.60;48.40;;;;;;10372750;28;1968;-67
2023/04/22 14:58:41;;;;;;;;;;;19.60;48.40;;;;;;10372730;28;1495;-67
2023/04/22 15:03:37;;;;;;;;;;;19.60;48.40;;;;;;10373010;28;777;-68
2023/04/22 15:08:32;;;;;;;;;;;19.60;48.40;;;;;;10373746;28;798;-67
2023/04/22 15:13:27;;;;;;;;;;;19.60;48.30;;;;;;10372600;28;1031;-67
2023/04/22 15:18:23;;;;;;;;;;;19.60;48.40;;;;;;10372351;28;1979;-68
2023/04/22 15:23:19;;;;;;;;;;;19.60;48.40;;;;;;10372194;28;967;-68
2023/04/22 15:28:14;;;;;;;;;;;19.70;48.50;;;;;;10371957;28;786;-68
2023/04/22 15:33:10;;;;;;;;;;;19.70;48.70;;;;;;10371836;28;762;-67
2023/04/22 15:38:05;;;;;;;;;;;19.70;48.90;;;;;;10371580;28;1967;-66
2023/04/22 15:43:00;;;;;;;;;;;19.70;49.20;;;;;;10371431;28;873;-66
2023/04/22 15:47:56;;;;;;;;;;;19.70;49.30;;;;;;10371229;28;912;-66
2023/04/22 15:52:51;;;;;;;;;;;19.70;49.50;;;;;;10371685;28;878;-66
2023/04/22 15:57:47;;;;;;;;;;;19.70;49.50;;;;;;10371384;28;1897;-66
2023/04/22 16:02:42;;;;;;;;;;;19.70;49.60;;;;;;10371695;28;795;-67
2023/04/22 16:07:38;;;;;;;;;;;19.70;49.60;;;;;;10371050;28;907;-68
2023/04/22 16:12:33;;;;;;;;;;;19.70;49.60;;;;;;10370933;28;876;-67
2023/04/22 16:17:28;;;;;;;;;;;19.70;50.20;;;;;;10370145;28;1902;-67
2023/04/22 16:22:24;;;;;;;;;;;19.70;49.60;;;;;;10370588;28;787;-67
2023/04/22 16:27:19;;;;;;;;;;;19.70;49.70;;;;;;10369630;28;901;-67
2023/04/22 16:32:15;;;;;;;;;;;19.70;50.00;;;;;;10369516;28;798;-68
2023/04/22 16:37:10;;;;;;;;;;;19.70;50.30;;;;;;10369841;28;1949;-68
2023/04/22 16:42:05;;;;;;;;;;;19.70;50.60;;;;;;10369261;28;833;-66
2023/04/22 16:47:01;;;;;;;;;;;19.70;50.50;;;;;;10368960;28;892;-66
2023/04/22 16:51:56;;;;;;;;;;;19.80;50.50;;;;;;10369369;28;924;-67
2023/04/22 16:56:52;;;;;;;;;;;19.80;50.40;;;;;;10368545;28;1898;-68
2023/04/22 17:01:47;;;;;;;;;;;19.80;50.60;;;;;;10369126;28;861;-68
2023/04/22 17:06:43;;;;;;;;;;;19.80;50.40;;;;;;10368223;28;789;-68
2023/04/22 17:11:38;;;;;;;;;;;19.80;50.40;;;;;;10368550;28;834;-68
2023/04/22 17:16:33;;;;;;;;;;;19.80;50.30;;;;;;10368744;28;1894;-68
2023/04/22 17:21:30;;;;;;;;;;;19.80;50.30;;;;;;10368480;28;810;-68
2023/04/22 17:26:25;;;;;;;;;;;19.80;50.20;;;;;;10368015;28;827;-68
2023/04/22 17:31:22;;;;;;;;;;;19.80;50.20;;;;;;10367312;28;885;-68
2023/04/22 17:36:17;;;;;;;;;;;19.80;50.10;;;;;;10367113;28;1894;-67
2023/04/22 17:41:12;;;;;;;;;;;19.80;50.10;;;;;;10366664;28;842;-68
2023/04/22 17:46:08;;;;;;;;;;;19.80;50.00;;;;;;10366889;28;869;-68
2023/04/22 17:51:06;;;;;;;;;;;19.80;50.00;;;;;;10366948;28;901;-68
2023/04/22 17:56:02;;;;;;;;;;;19.80;50.00;;;;;;10366684;28;1953;-68
2023/04/22 18:00:57;;;;;;;;;;;19.80;50.00;;;;;;10367150;28;821;-68
2023/04/22 18:05:52;;;;;;;;;;;19.90;50.00;;;;;;10366966;28;1560;-68
2023/04/22 18:10:48;;;;;;;;;;;19.90;50.00;;;;;;10366266;28;1136;-68
2023/04/22 18:15:43;;;;;;;;;;;19.90;50.00;;;;;;10366290;28;1967;-68
2023/04/22 18:20:38;;;;;;;;;;;19.90;50.70;;;;;;10366101;28;988;-67
2023/04/22 18:25:34;;;;;;;;;;;19.90;50.00;;;;;;10366268;28;973;-75
2023/04/22 18:30:30;;;;;;;;;;;19.90;50.00;;;;;;10366532;28;909;-76
2023/04/22 18:35:25;;;;;;;;;;;19.90;50.00;;;;;;10366772;28;1957;-74
2023/04/22 18:40:22;;;;;;;;;;;19.90;49.90;;;;;;10365871;28;878;-74
2023/04/22 18:45:17;;;;;;;;;;;19.90;49.90;;;;;;10366460;28;836;-74
2023/04/22 18:50:13;;;;;;;;;;;19.90;49.90;;;;;;10366207;28;833;-75
2023/04/22 18:55:08;;;;;;;;;;;19.90;49.90;;;;;;10365432;28;1902;-75
2023/04/22 19:00:05;;;;;;;;;;;19.90;49.80;;;;;;10365094;28;883;-74
2023/04/22 19:05:00;;;;;;;;;;;19.90;49.80;;;;;;10369408;28;838;-75
2023/04/22 19:09:55;;;;;;;;;;;19.90;49.80;;;;;;10373383;28;1007;-74
2023/04/22 19:14:51;;;;;;;;;;;20.00;49.80;;;;;;10372576;28;1910;-74
2023/04/22 19:19:46;;;;;;;;;;;20.00;49.80;;;;;;10372403;28;841;-74
2023/04/22 19:24:42;;;;;;;;;;;20.00;49.80;;;;;;10372824;28;769;-75
2023/04/22 19:29:37;;;;;;;;;;;20.00;49.80;;;;;;10372971;28;849;-74
2023/04/22 19:34:32;;;;;;;;;;;20.00;49.70;;;;;;10371789;28;1905;-74
2023/04/22 19:39:28;;;;;;;;;;;20.00;49.70;;;;;;10372291;28;801;-75
2023/04/22 19:44:23;;;;;;;;;;;20.00;49.70;;;;;;10371478;28;782;-74
2023/04/22 19:49:19;;;;;;;;;;;20.00;49.70;;;;;;10370659;28;846;-75
2023/04/22 19:54:14;;;;;;;;;;;20.00;49.80;;;;;;10371614;28;1902;-74
2023/04/22 19:59:10;;;;;;;;;;;19.90;49.70;;;;;;10370619;28;1223;-75
2023/04/22 20:04:05;;;;;;;;;;;19.90;49.70;;;;;;10370614;28;1044;-75
2023/04/22 20:09:00;;;;;;;;;;;19.90;49.70;;;;;;10371129;28;770;-75
2023/04/22 20:13:56;;;;;;;;;;;19.90;49.70;;;;;;10369903;28;1906;-74
2023/04/22 20:18:51;;;;;;;;;;;19.90;49.80;;;;;;10370978;28;782;-75
2023/04/22 20:23:46;;;;;;;;;;;19.90;49.80;;;;;;10369781;28;850;-75
2023/04/22 20:28:42;;;;;;;;;;;19.90;49.80;;;;;;10369769;28;945;-74
2023/04/22 20:33:38;;;;;;;;;;;19.80;49.70;;;;;;10369932;28;1111;-74
2023/04/22 20:38:35;;;;;;;;;;;19.80;49.70;;;;;;10351600;28;1969;-75
2023/04/22 20:43:31;;;;;;;;;;;19.80;49.70;;;;;;10369175;28;842;-75
2023/04/22 20:48:26;;;;;;;;;;;19.90;49.70;;;;;;10369725;28;794;-74
2023/04/22 20:53:22;;;;;;;;;;;19.90;49.80;;;;;;10368712;28;871;-75
2023/04/22 20:58:17;;;;;;;;;;;19.90;49.70;;;;;;10369323;28;2036;-74
2023/04/22 21:03:13;;;;;;;;;;;19.90;49.70;;;;;;10367755;28;1031;-75
2023/04/22 21:08:08;;;;;;;;;;;19.90;49.70;;;;;;10368189;28;766;-74
2023/04/22 21:13:04;;;;;;;;;;;19.90;49.80;;;;;;10367365;28;992;-74
2023/04/22 21:18:00;;;;;;;;;;;19.90;49.80;;;;;;10367754;28;1918;-74
2023/04/22 21:22:55;;;;;;;;;;;19.90;49.80;;;;;;10367533;28;1109;-74
2023/04/22 21:27:51;;;;;;;;;;;19.80;50.30;;;;;;10366790;28;888;-75
2023/04/22 21:32:46;;;;;;;;;;;19.80;49.70;;;;;;10367337;28;743;-75
2023/04/22 21:37:41;;;;;;;;;;;19.80;49.70;;;;;;10367130;28;1910;-74
2023/04/22 21:42:37;;;;;;;;;;;19.80;49.70;;;;;;10367059;28;801;-75
2023/04/22 21:47:32;;;;;;;;;;;19.90;49.80;;;;;;10367158;28;884;-74
2023/04/22 21:52:28;;;;;;;;;;;19.80;49.70;;;;;;10367405;28;798;-75
2023/04/22 21:57:23;;;;;;;;;;;19.80;49.70;;;;;;10365979;28;1963;-74
2023/04/22 22:02:18;;;;;;;;;;;19.80;49.70;;;;;;10366537;28;872;-77
2023/04/22 22:07:16;;;;;;;;;;;19.80;49.80;;;;;;10365740;28;1151;-76
2023/04/22 22:12:11;;;;;;;;;;;19.80;49.80;;;;;;10366280;28;887;-76
2023/04/22 22:17:10;;;;;;;;;;;19.80;49.80;;;;;;10366628;28;1989;-76
2023/04/22 22:22:05;;;;;;;;;;;19.80;49.70;;;;;;10366216;28;896;-76
2023/04/22 22:27:01;;;;;;;;;;;19.80;49.70;;;;;;10366693;28;852;-77
2023/04/22 22:31:56;;;;;;;;;;;19.80;49.70;;;;;;10366589;28;810;-76
2023/04/22 22:36:51;;;;;;;;;;;19.90;49.70;;;;;;10366609;28;1973;-77
2023/04/22 22:41:47;;;;;;;;;;;19.80;49.60;;;;;;10374598;28;782;-76
2023/04/22 22:46:42;;;;;;;;;;;19.80;49.60;;;;;;10374408;28;934;-76
2023/04/22 22:51:38;;;;;;;;;;;19.80;49.60;;;;;;10374192;28;884;-77
2023/04/22 22:56:33;;;;;;;;;;;19.80;49.60;;;;;;10373146;28;1902;-76
2023/04/22 23:01:28;;;;;;;;;;;19.80;49.50;;;;;;10373168;28;783;-76
2023/04/22 23:06:24;;;;;;;;;;;19.80;49.60;;;;;;10372994;28;809;-77
2023/04/22 23:11:19;;;;;;;;;;;19.80;49.50;;;;;;10373011;28;918;-77
2023/04/22 23:16:15;;;;;;;;;;;19.80;49.50;;;;;;10373259;28;1905;-76
2023/04/22 23:21:10;;;;;;;;;;;19.80;49.50;;;;;;10373004;28;854;-76
2023/04/22 23:26:06;;;;;;;;;;;19.80;49.50;;;;;;10372373;28;846;-77
2023/04/22 23:31:01;;;;;;;;;;;19.80;49.50;;;;;;10371365;28;878;-77
2023/04/22 23:35:57;;;;;;;;;;;19.80;49.50;;;;;;10371803;28;1902;-77
2023/04/22 23:40:52;;;;;;;;;;;19.80;49.50;;;;;;10372284;28;865;-77
2023/04/22 23:45:47;;;;;;;;;;;19.80;49.50;;;;;;10370882;28;779;-77
2023/04/22 23:50:43;;;;;;;;;;;19.80;49.50;;;;;;10370576;28;767;-76
2023/04/22 23:55:38;;;;;;;;;;;19.80;49.50;;;;;;10372010;28;1901;-77
